Time;durP1;ratioP1;P1;durP2;ratioP2;P2;SDS_P1;SDS_P2;PMS_P1;PMS_P2;Temp;Humidity;BMP_temperature;BMP_pressure;BME280_temperature;BME280_humidity;BME280_pressure;Samples;Min_cycle;Max_cycle;Signal;HPM_P1;HPM_P2
2022/05/22 00:02:26;;;;;;;4.50;1.80;;;;;;;10.60;88.48;101238.22;5967648;29;20035;-66
2022/05/22 00:05:23;;;;;;;5.00;1.30;;;;;;;10.70;87.96;101241.78;5979366;28;20490;-66
2022/05/22 00:08:20;;;;;;;7.43;1.95;;;;;;;10.67;87.22;101240.22;5969794;28;20166;-66
2022/05/22 00:11:15;;;;;;;5.22;1.45;;;;;;;10.58;87.10;101238.38;5974002;28;20055;-66
2022/05/22 00:14:12;;;;;;;8.03;1.90;;;;;;;10.59;87.11;101237.41;5966971;29;20050;-66
2022/05/22 00:17:08;;;;;;;4.32;1.58;;;;;;;10.65;87.64;101239.50;5975784;29;20482;-66
2022/05/22 00:20:04;;;;;;;4.53;1.42;;;;;;;10.66;86.95;101243.84;5969627;29;20031;-66
2022/05/22 00:22:59;;;;;;;6.25;1.50;;;;;;;10.58;87.09;101229.56;5978906;28;20043;-66
2022/05/22 00:25:55;;;;;;;7.70;1.63;;;;;;;10.72;87.60;101226.56;5984273;28;20414;-65
2022/05/22 00:28:51;;;;;;;8.10;1.48;;;;;;;10.60;87.20;101228.44;5980244;28;20035;-66
2022/05/22 00:31:47;;;;;;;5.07;1.45;;;;;;;10.67;87.85;101234.06;5969888;28;20040;-65
2022/05/22 00:34:42;;;;;;;5.55;1.70;;;;;;;10.48;87.34;101228.69;5975405;28;20035;-66
2022/05/22 00:37:37;;;;;;;4.50;1.83;;;;;;;10.43;88.25;101226.44;5982748;28;20031;-66
2022/05/22 00:40:34;;;;;;;5.17;1.37;;;;;;;10.47;88.63;101227.84;5980331;28;20089;-66
2022/05/22 00:43:32;;;;;;;5.28;1.63;;;;;;;10.45;89.50;101221.84;5976993;28;20463;-66
2022/05/22 00:46:29;;;;;;;3.70;1.42;;;;;;;10.45;89.36;101223.66;5980051;28;20045;-66
2022/05/22 00:49:28;;;;;;;6.65;1.70;;;;;;;10.42;89.76;101230.06;5973527;29;20062;-66
2022/05/22 00:52:39;;;;;;;6.22;1.50;;;;;;;10.48;89.89;101228.69;5976010;28;20031;-66
2022/05/22 00:55:35;;;;;;;6.13;1.85;;;;;;;10.43;89.56;101231.75;5982129;29;20039;-66
2022/05/22 00:58:31;;;;;;;5.00;1.80;;;;;;;10.45;89.63;101229.78;5983060;28;20118;-66
2022/05/22 01:01:27;;;;;;;6.85;1.58;;;;;;;10.46;89.33;101231.47;5987460;28;20039;-66
2022/05/22 01:04:24;;;;;;;4.50;1.65;;;;;;;10.51;89.48;101239.03;5982816;28;20027;-65
2022/05/22 01:07:20;;;;;;;5.18;1.40;;;;;;;10.58;89.67;101230.41;5977368;29;20094;-66
2022/05/22 01:10:16;;;;;;;8.13;1.90;;;;;;;10.46;89.57;101220.84;5981119;29;20051;-66
2022/05/22 01:13:13;;;;;;;5.65;1.42;;;;;;;10.61;88.61;101230.13;5982507;28;20141;-66
2022/05/22 01:16:08;;;;;;;7.50;1.50;;;;;;;10.43;88.72;101226.44;5981194;28;20125;-67
2022/05/22 01:19:17;;;;;;;6.05;1.55;;;;;;;10.07;89.32;101233.03;5982430;28;20105;-66
2022/05/22 01:22:13;;;;;;;3.63;1.40;;;;;;;10.00;89.88;101231.06;5976043;28;20035;-66
2022/05/22 01:25:09;;;;;;;3.97;1.50;;;;;;;9.89;90.53;101223.16;5982379;28;20051;-66
2022/05/22 01:28:05;;;;;;;11.95;1.50;;;;;;;9.70;90.41;101215.06;5978284;28;20148;-66
2022/05/22 01:31:01;;;;;;;5.68;2.15;;;;;;;9.74;90.71;101216.50;5967303;29;20423;-66
2022/05/22 01:33:56;;;;;;;7.32;1.60;;;;;;;9.85;91.35;101216.44;5981245;28;20042;-66
2022/05/22 01:36:51;;;;;;;5.70;1.90;;;;;;;9.94;91.64;101218.31;5982204;28;20543;-66
2022/05/22 01:39:48;;;;;;;4.47;1.63;;;;;;;10.00;91.72;101229.22;5976002;28;20039;-66
2022/05/22 01:42:43;;;;;;;4.00;1.52;;;;;;;9.87;90.87;101231.22;5979578;28;20074;-66
2022/05/22 01:45:41;;;;;;;5.53;1.70;;;;;;;9.57;91.09;101231.97;5982088;28;20439;-66
2022/05/22 01:48:37;;;;;;;5.32;1.60;;;;;;;9.44;91.14;101235.75;5972550;28;20467;-66
2022/05/22 01:51:35;;;;;;;4.47;1.50;;;;;;;9.26;91.44;101242.56;5982607;28;20046;-66
2022/05/22 01:54:30;;;;;;;5.05;1.70;;;;;;;9.26;91.96;101229.31;5973322;29;20043;-66
2022/05/22 01:57:25;;;;;;;5.57;1.73;;;;;;;9.43;92.26;101226.16;5976749;28;20040;-66
2022/05/22 02:00:21;;;;;;;7.20;1.57;;;;;;;9.23;91.99;101234.88;5968348;28;20455;-66
2022/05/22 02:03:17;;;;;;;3.10;1.50;;;;;;;9.38;92.13;101236.25;5978239;28;20043;-66
2022/05/22 02:06:12;;;;;;;8.25;2.17;;;;;;;9.67;92.64;101234.72;5992165;28;20447;-66
2022/05/22 02:09:07;;;;;;;9.83;1.80;;;;;;;9.57;92.10;101229.31;5968265;28;20038;-66
2022/05/22 02:12:03;;;;;;;4.20;1.80;;;;;;;9.56;91.59;101221.53;5974323;28;20291;-66
2022/05/22 02:14:58;;;;;;;2.78;1.48;;;;;;;9.56;91.73;101222.38;5968827;28;20042;-66
2022/05/22 02:17:54;;;;;;;4.80;2.10;;;;;;;9.75;92.21;101212.88;5979538;28;20041;-66
2022/05/22 02:20:49;;;;;;;6.53;2.03;;;;;;;9.73;91.78;101206.88;5981024;28;20031;-66
2022/05/22 02:23:44;;;;;;;6.53;1.67;;;;;;;9.71;91.10;101214.09;5975615;28;20495;-66
2022/05/22 02:26:40;;;;;;;6.13;2.00;;;;;;;9.71;92.12;101214.09;5979038;28;20282;-66
2022/05/22 02:29:36;;;;;;;6.85;1.70;;;;;;;9.94;91.94;101208.56;5976943;28;20051;-66
2022/05/22 02:32:31;;;;;;;8.85;2.20;;;;;;;10.12;91.90;101211.44;5965045;28;20468;-66
2022/05/22 02:35:26;;;;;;;8.00;2.70;;;;;;;10.06;91.41;101196.06;5982120;28;20039;-66
2022/05/22 02:38:22;;;;;;;6.23;1.50;;;;;;;10.04;91.22;101198.84;5973277;28;20042;-66
2022/05/22 02:41:18;;;;;;;5.95;2.38;;;;;;;9.42;90.54;101196.19;5975902;28;20051;-66
2022/05/22 02:44:13;;;;;;;9.48;1.95;;;;;;;9.06;91.05;101196.53;5980423;28;20035;-66
2022/05/22 02:47:08;;;;;;;5.47;1.52;;;;;;;8.89;91.78;101205.00;5976354;28;20054;-66
2022/05/22 02:50:06;;;;;;;3.35;1.98;;;;;;;9.01;92.80;101193.44;5985366;28;20031;-65
2022/05/22 02:53:01;;;;;;;4.65;1.95;;;;;;;8.94;93.31;101194.91;5976639;28;20131;-65
2022/05/22 02:56:06;;;;;;;6.40;2.17;;;;;;;9.09;93.23;101204.22;5978617;28;20043;-65
2022/05/22 02:59:01;;;;;;;5.22;2.08;;;;;;;8.78;93.56;101202.34;5970015;28;20031;-65
2022/05/22 03:01:57;;;;;;;6.60;2.07;;;;;;;8.53;93.66;101205.28;5983631;28;20045;-66
2022/05/22 03:04:52;;;;;;;5.23;1.77;;;;;;;8.65;94.75;101199.03;5968499;28;20039;-65
2022/05/22 03:07:47;;;;;;;7.83;1.80;;;;;;;8.49;93.95;101209.97;5970077;28;20031;-65
2022/05/22 03:10:44;;;;;;;5.80;2.28;;;;;;;8.28;94.46;101203.72;5979611;28;20570;-65
2022/05/22 03:13:39;;;;;;;4.85;2.20;;;;;;;8.45;95.00;101200.63;5970976;28;20042;-65
2022/05/22 03:16:35;;;;;;;7.33;1.90;;;;;;;8.23;95.09;101204.06;5978173;28;20755;-66
2022/05/22 03:19:30;;;;;;;5.33;1.73;;;;;;;8.16;95.52;101208.13;5977714;28;20035;-65
2022/05/22 03:22:25;;;;;;;5.73;2.50;;;;;;;8.00;95.82;101209.41;5974347;28;20038;-65
2022/05/22 03:25:21;;;;;;;4.85;2.28;;;;;;;7.94;95.97;101226.56;5973564;28;20042;-66
2022/05/22 03:28:16;;;;;;;5.67;2.20;;;;;;;7.92;96.86;101236.41;5980143;28;20043;-65
2022/05/22 03:31:12;;;;;;;5.03;2.38;;;;;;;7.92;97.09;101240.84;5976433;28;20423;-65
2022/05/22 03:34:07;;;;;;;6.65;2.97;;;;;;;8.03;97.16;101239.06;5977693;28;20039;-65
2022/05/22 03:37:05;;;;;;;6.50;2.92;;;;;;;8.23;97.75;101224.34;5979460;28;20073;-65
2022/05/22 03:40:00;;;;;;;7.15;2.58;;;;;;;8.07;97.60;101229.13;5963371;28;20057;-65
2022/05/22 03:42:55;;;;;;;8.38;2.78;;;;;;;8.15;98.01;101224.09;5973945;28;20035;-65
2022/05/22 03:45:51;;;;;;;12.87;2.77;;;;;;;8.40;98.31;101217.78;5981821;28;20066;-65
2022/05/22 03:48:46;;;;;;;8.83;2.97;;;;;;;8.47;97.95;101219.81;5977369;28;20039;-65
2022/05/22 03:51:42;;;;;;;5.57;2.97;;;;;;;8.70;97.83;101221.47;5972968;28;20087;-65
2022/05/22 03:54:37;;;;;;;7.20;3.10;;;;;;;8.77;97.92;101224.50;5971884;28;20352;-66
2022/05/22 03:57:33;;;;;;;8.83;3.53;;;;;;;8.77;97.60;101219.22;5967899;28;20480;-65
2022/05/22 04:00:28;;;;;;;8.45;3.20;;;;;;;8.84;97.84;101212.44;5975216;28;20055;-65
2022/05/22 04:03:23;;;;;;;6.00;3.30;;;;;;;9.21;97.48;101208.53;5977044;28;20027;-65
2022/05/22 04:06:18;;;;;;;6.33;2.97;;;;;;;9.03;97.37;101211.81;5979154;28;20287;-65
2022/05/22 04:09:14;;;;;;;5.23;2.77;;;;;;;9.08;96.89;101210.47;5966242;28;20043;-65
2022/05/22 04:12:11;;;;;;;11.77;3.60;;;;;;;9.24;96.27;101218.84;5976430;28;20033;-65
2022/05/22 04:15:08;;;;;;;9.70;3.00;;;;;;;8.91;96.15;101216.31;5979318;28;20139;-66
2022/05/22 04:18:03;;;;;;;5.82;3.22;;;;;;;9.10;96.31;101211.22;5982913;28;20031;-65
2022/05/22 04:20:59;;;;;;;6.47;3.63;;;;;;;9.95;96.76;101198.78;5982520;28;20114;-65
2022/05/22 04:27:08;;;;;;;8.20;2.60;;;;;;;11.08;92.43;101183.50;5977047;28;20475;-66
2022/05/22 04:30:04;;;;;;;5.13;2.20;;;;;;;11.20;89.57;101192.16;5976890;28;20031;-66
2022/05/22 04:33:01;;;;;;;4.35;1.80;;;;;;;11.42;89.65;101183.06;5973856;28;20829;-66
2022/05/22 04:35:56;;;;;;;7.20;2.40;;;;;;;11.82;86.89;101208.53;5987760;28;20047;-66
2022/05/22 04:38:51;;;;;;;5.55;2.15;;;;;;;11.65;84.76;101201.25;5976514;28;20047;-65
2022/05/22 04:41:47;;;;;;;7.93;2.50;;;;;;;11.77;83.91;101205.47;5973701;28;20490;-66
2022/05/22 04:44:42;;;;;;;4.47;1.70;;;;;;;12.36;81.67;101201.72;5978684;28;20059;-65
2022/05/22 04:47:40;;;;;;;7.63;2.30;;;;;;;12.68;81.67;101207.44;5977502;28;20031;-66
2022/05/22 04:50:35;;;;;;;7.43;2.10;;;;;;;12.35;79.08;101206.19;5974262;28;20142;-66
2022/05/22 04:53:31;;;;;;;4.50;1.80;;;;;;;13.15;78.52;101200.22;5974002;28;20471;-66
2022/05/22 04:56:26;;;;;;;6.03;1.90;;;;;;;13.46;75.90;101195.34;5973971;29;20035;-65
2022/05/22 04:59:21;;;;;;;6.35;1.80;;;;;;;13.58;74.71;101194.13;5978893;28;20058;-66
2022/05/22 05:02:17;;;;;;;4.72;1.70;;;;;;;13.79;75.07;101199.09;5972838;28;20054;-66
2022/05/22 05:05:12;;;;;;;7.20;2.27;;;;;;;14.01;73.29;101193.28;5979772;28;20043;-66
2022/05/22 05:08:07;;;;;;;6.40;1.77;;;;;;;14.25;73.40;101198.78;5975982;28;20038;-66
2022/05/22 05:11:03;;;;;;;3.00;1.58;;;;;;;14.25;71.57;101196.94;5979313;28;20039;-66
2022/05/22 05:13:58;;;;;;;7.93;1.90;;;;;;;14.44;73.17;101200.41;5982604;28;20530;-66
2022/05/22 05:16:53;;;;;;;6.00;1.70;;;;;;;14.99;70.33;101195.47;5982442;28;20494;-67
2022/05/22 05:19:49;;;;;;;5.90;1.83;;;;;;;15.01;69.31;101199.63;5982333;28;20271;-65
2022/05/22 05:22:44;;;;;;;7.57;2.00;;;;;;;15.82;67.77;101200.59;5988072;28;20458;-66
2022/05/22 05:25:40;;;;;;;6.15;1.63;;;;;;;16.22;66.44;101198.91;5986142;28;20031;-66
2022/05/22 05:28:35;;;;;;;7.97;1.98;;;;;;;16.45;64.96;101194.47;5977679;28;20114;-66
2022/05/22 05:31:31;;;;;;;5.07;1.87;;;;;;;16.48;64.18;101200.31;5981645;28;20726;-66
2022/05/22 05:34:26;;;;;;;8.03;2.40;;;;;;;17.12;62.57;101201.88;5981502;28;20369;-66
2022/05/22 05:37:21;;;;;;;6.83;1.70;;;;;;;16.94;64.32;101197.81;5982209;28;20035;-66
2022/05/22 05:40:17;;;;;;;4.97;1.80;;;;;;;17.01;62.71;101198.78;5980739;28;20313;-65
2022/05/22 05:43:13;;;;;;;8.60;1.98;;;;;;;16.39;63.34;101193.31;5978187;28;20281;-66
2022/05/22 05:46:09;;;;;;;6.90;2.33;;;;;;;15.20;67.50;101202.03;5981985;28;20062;-66
2022/05/22 05:49:08;;;;;;;6.45;2.10;;;;;;;15.38;67.99;101208.06;5981514;28;20041;-65
2022/05/22 05:52:04;;;;;;;9.13;2.45;;;;;;;15.54;69.14;101201.94;5980700;28;20035;-66
2022/05/22 05:54:59;;;;;;;5.85;2.20;;;;;;;16.29;66.81;101197.19;5980992;28;20046;-65
2022/05/22 05:57:54;;;;;;;9.53;2.20;;;;;;;16.10;65.69;101209.09;5985432;28;20527;-65
2022/05/22 06:00:50;;;;;;;7.78;2.20;;;;;;;15.79;67.53;101200.13;5981671;28;20059;-66
2022/05/22 06:03:45;;;;;;;6.60;2.20;;;;;;;15.88;67.33;101199.09;5982666;28;20043;-65
2022/05/22 06:06:41;;;;;;;7.57;1.73;;;;;;;15.74;67.77;101197.09;5981783;28;20089;-66
2022/05/22 06:09:36;;;;;;;7.00;2.20;;;;;;;15.23;68.36;101198.19;5993366;28;20102;-66
2022/05/22 06:12:32;;;;;;;5.63;2.00;;;;;;;15.70;68.79;101201.13;5977786;28;20031;-66
2022/05/22 06:15:27;;;;;;;8.10;2.67;;;;;;;15.99;66.52;101196.06;5981121;28;20090;-66
2022/05/22 06:18:22;;;;;;;10.90;2.20;;;;;;;15.37;67.79;101186.84;5990375;28;20043;-66
2022/05/22 06:21:19;;;;;;;5.07;2.47;;;;;;;16.10;66.16;101185.03;5980466;28;20061;-65
2022/05/22 06:24:14;;;;;;;10.35;2.38;;;;;;;15.93;65.99;101191.41;5989743;28;20035;-66
2022/05/22 06:27:10;;;;;;;6.13;2.97;;;;;;;15.41;67.55;101189.03;5981202;28;20046;-65
2022/05/22 06:30:06;;;;;;;11.55;2.22;;;;;;;15.48;67.75;101190.09;5980168;28;20387;-66
2022/05/22 06:33:09;;;;;;;9.30;2.30;;;;;;;15.52;65.92;101187.91;5974710;28;20074;-65
2022/05/22 06:36:13;;;;;;;7.85;2.35;;;;;;;16.51;63.34;101178.56;5981574;28;20110;-66
2022/05/22 06:42:31;;;;;;;14.77;2.88;;;;;;;16.28;63.76;101160.75;5971427;29;20040;-66
2022/05/22 06:45:26;;;;;;;9.90;2.40;;;;;;;15.87;63.59;101170.69;5975057;28;20043;-66
2022/05/22 06:48:21;;;;;;;9.60;2.40;;;;;;;15.22;67.82;101175.97;5978558;28;20479;-65
2022/05/22 06:51:17;;;;;;;8.67;2.80;;;;;;;14.73;68.09;101168.84;5975820;28;20678;-66
2022/05/22 06:54:12;;;;;;;7.63;2.33;;;;;;;14.70;69.45;101174.53;5962883;29;20091;-65
2022/05/22 06:57:07;;;;;;;7.60;2.43;;;;;;;15.34;68.66;101174.66;5974638;28;20047;-66
2022/05/22 07:00:06;;;;;;;5.33;2.37;;;;;;;16.31;64.80;101179.94;5977779;28;20302;-66
2022/05/22 07:03:01;;;;;;;7.15;2.60;;;;;;;16.57;63.04;101169.88;5979331;28;20042;-65
2022/05/22 07:05:56;;;;;;;10.55;2.75;;;;;;;16.28;62.60;101174.94;5972914;28;20043;-65
2022/05/22 07:08:52;;;;;;;7.93;3.20;;;;;;;15.71;63.46;101170.72;5977754;28;20039;-66
2022/05/22 07:11:49;;;;;;;10.77;3.47;;;;;;;15.44;65.26;101179.84;5979929;28;20063;-65
2022/05/22 07:14:45;;;;;;;11.25;3.80;;;;;;;14.81;67.48;101166.22;5981476;28;20478;-66
2022/05/22 07:17:40;;;;;;;10.05;3.60;;;;;;;14.61;68.43;101164.78;5978304;28;20031;-65
2022/05/22 07:20:35;;;;;;;7.30;2.80;;;;;;;15.96;64.34;101167.81;5978403;28;20390;-65
2022/05/22 07:23:30;;;;;;;7.57;3.37;;;;;;;16.46;64.05;101172.91;5980181;28;20035;-65
2022/05/22 07:26:26;;;;;;;12.40;3.83;;;;;;;16.49;61.73;101175.22;5979967;28;20031;-66
2022/05/22 07:29:22;;;;;;;8.38;3.40;;;;;;;15.99;63.56;101172.84;5980356;28;20097;-65
2022/05/22 07:32:17;;;;;;;10.27;3.53;;;;;;;15.87;63.31;101160.00;5980081;28;20031;-65
2022/05/22 07:35:12;;;;;;;11.40;4.10;;;;;;;16.42;61.57;101162.69;5979993;28;20274;-66
2022/05/22 07:38:08;;;;;;;10.93;4.17;;;;;;;16.35;60.00;101149.16;5980436;28;20278;-65
2022/05/22 07:41:03;;;;;;;8.33;3.53;;;;;;;17.08;61.87;101152.34;5978057;28;20380;-66
2022/05/22 07:43:59;;;;;;;14.37;3.90;;;;;;;16.84;59.41;101152.50;5980066;28;20086;-66
2022/05/22 07:46:54;;;;;;;10.52;4.15;;;;;;;16.29;62.41;101155.22;5979256;28;20078;-66
2022/05/22 07:53:04;;;;;;;7.97;3.90;;;;;;;16.22;60.35;101154.22;5981044;28;20066;-65
2022/05/22 07:55:59;;;;;;;7.50;3.88;;;;;;;17.36;57.71;101135.75;5979157;28;20027;-66
2022/05/22 07:58:54;;;;;;;8.90;4.32;;;;;;;17.84;56.65;101154.13;5979208;28;20053;-66
2022/05/22 08:01:50;;;;;;;8.00;4.40;;;;;;;16.58;58.60;101139.38;5978753;28;20051;-64
2022/05/22 08:04:45;;;;;;;12.77;4.83;;;;;;;16.39;61.65;101157.66;5979119;28;20045;-68
2022/05/22 08:07:41;;;;;;;15.20;5.67;;;;;;;15.68;63.14;101155.00;5976658;28;20435;-65
2022/05/22 08:10:38;;;;;;;10.40;4.90;;;;;;;15.72;63.57;101154.47;5971260;28;20062;-65
2022/05/22 08:13:33;;;;;;;9.65;4.35;;;;;;;16.61;61.20;101163.16;5978173;28;20093;-66
2022/05/22 08:16:29;;;;;;;9.20;5.13;;;;;;;17.46;57.06;101141.69;5970437;28;20035;-65
2022/05/22 08:19:25;;;;;;;11.17;4.57;;;;;;;18.18;53.95;101140.19;5979487;28;20450;-65
2022/05/22 08:22:20;;;;;;;8.55;4.03;;;;;;;18.33;55.04;101157.13;5983384;28;20031;-66
2022/05/22 08:25:18;;;;;;;9.07;3.77;;;;;;;17.68;54.89;101160.47;5981828;28;20039;-66
2022/05/22 08:28:14;;;;;;;8.70;3.42;;;;;;;16.94;56.23;101165.66;5980036;28;20372;-65
2022/05/22 08:31:11;;;;;;;9.68;3.47;;;;;;;16.27;58.16;101173.28;5973331;28;20044;-65
2022/05/22 08:34:07;;;;;;;5.40;3.17;;;;;;;15.86;60.05;101169.84;5977315;28;20047;-66
2022/05/22 08:37:02;;;;;;;8.88;3.78;;;;;;;15.78;59.90;101156.50;5984615;28;20042;-65
2022/05/22 08:39:57;;;;;;;10.45;3.60;;;;;;;16.62;57.84;101146.09;5976566;28;20031;-65
2022/05/22 08:43:03;;;;;;;8.40;3.47;;;;;;;17.09;57.94;101158.56;5993277;28;20039;-65
2022/05/22 08:46:05;;;;;;;8.75;3.90;;;;;;;16.35;59.46;101154.53;5985755;28;20414;-65
2022/05/22 08:49:20;;;;;;;9.65;3.90;;;;;;;15.97;59.22;101157.97;5992210;28;20085;-65
2022/05/22 08:52:27;;;;;;;7.75;3.33;;;;;;;16.02;60.44;101153.78;5990610;28;20396;-65
2022/05/22 08:58:56;;;;;;;6.38;2.97;;;;;;;16.27;59.11;101159.91;5982188;29;20063;-65
2022/05/22 09:02:36;;;;;;;5.80;2.92;;;;;;;16.70;58.60;101147.88;5988344;28;20110;-65
2022/05/22 09:05:32;;;;;;;6.70;3.63;;;;;;;17.08;56.78;101143.47;5982177;28;20066;-65
2022/05/22 09:08:47;;;;;;;9.95;3.65;;;;;;;17.41;55.67;101150.28;5982160;28;20054;-65
2022/05/22 09:12:02;;;;;;;6.65;2.67;;;;;;;17.52;53.25;101149.00;5982391;28;20039;-65
2022/05/22 09:15:07;;;;;;;7.25;2.63;;;;;;;17.44;55.07;101141.88;5981550;29;20117;-65
2022/05/22 09:18:17;;;;;;;8.50;2.85;;;;;;;16.62;58.52;101156.78;5988740;28;20097;-65
2022/05/22 09:21:25;;;;;;;5.28;2.70;;;;;;;16.57;59.12;101153.81;5993882;28;20043;-66
2022/05/22 09:24:35;;;;;;;10.50;3.47;;;;;;;16.28;59.83;101156.19;5986368;28;20047;-66
2022/05/22 09:27:49;;;;;;;3.97;2.83;;;;;;;16.47;57.46;101147.78;5981225;28;20035;-66
2022/05/22 09:31:23;;;;;;;8.45;3.22;;;;;;;16.74;59.16;101138.47;5974368;29;20044;-66
2022/05/22 09:34:35;;;;;;;6.63;4.05;;;;;;;16.87;56.16;101140.59;5960164;28;20392;-66
2022/05/22 09:37:46;;;;;;;11.05;3.85;;;;;;;17.35;53.57;101140.25;5985659;28;20118;-65
2022/05/22 09:40:47;;;;;;;8.25;3.70;;;;;;;18.09;52.09;101122.50;5968804;28;20061;-66
2022/05/22 09:44:20;;;;;;;6.05;2.97;;;;;;;18.70;49.24;101116.72;5983530;28;20394;-66
2022/05/22 09:47:28;;;;;;;7.82;2.60;;;;;;;18.17;50.48;101123.25;5981301;28;20085;-66
2022/05/22 09:50:46;;;;;;;7.20;2.17;;;;;;;17.56;52.46;101119.00;5976513;28;20050;-66
2022/05/22 09:54:01;;;;;;;9.35;2.53;;;;;;;17.17;52.96;101126.34;5972019;28;20035;-66
2022/05/22 09:57:22;;;;;;;5.70;2.50;;;;;;;16.93;54.73;101121.13;5977583;28;20035;-66
2022/05/22 10:00:20;;;;;;;6.35;2.50;;;;;;;16.98;52.50;101105.38;5981339;28;20039;-65
2022/05/22 10:03:21;;;;;;;5.85;2.50;;;;;;;16.99;52.01;101117.72;5975994;28;20419;-65
2022/05/22 10:06:41;;;;;;;6.72;2.25;;;;;;;17.19;53.43;101105.53;5976238;28;20043;-66
2022/05/22 10:09:46;;;;;;;7.72;2.00;;;;;;;17.93;50.27;101109.25;5974082;28;20039;-66
2022/05/22 10:13:04;;;;;;;5.72;2.38;;;;;;;18.56;50.69;101109.53;5976315;28;20035;-66
2022/05/22 10:16:21;;;;;;;4.35;2.13;;;;;;;18.17;51.08;101117.88;5981272;29;20069;-66
2022/05/22 10:19:31;;;;;;;5.35;2.00;;;;;;;17.80;52.18;101110.72;5982830;28;20031;-66
2022/05/22 10:22:49;;;;;;;4.13;1.77;;;;;;;17.81;52.05;101127.66;5980412;28;20079;-66
2022/05/22 10:26:12;;;;;;;8.60;2.03;;;;;;;18.77;50.78;101120.34;5991324;28;20506;-66
2022/05/22 10:29:22;;;;;;;6.18;1.67;;;;;;;19.35;46.55;101102.31;5984167;28;20053;-66
2022/05/22 10:32:27;;;;;;;4.22;1.60;;;;;;;19.40;47.75;101106.13;5977122;28;20042;-66
2022/05/22 10:35:26;;;;;;;4.10;2.13;;;;;;;19.61;47.20;101107.94;5984755;28;20047;-66
2022/05/22 10:38:25;;;;;;;5.18;2.08;;;;;;;19.84;46.63;101102.31;5979993;28;20039;-66
2022/05/22 10:44:45;;;;;;;3.58;1.70;;;;;;;19.98;44.25;101088.72;5993330;28;20031;-67
2022/05/22 10:47:40;;;;;;;3.78;1.98;;;;;;;19.65;44.29;101086.84;5980608;28;20093;-66
2022/05/22 10:50:37;;;;;;;6.10;2.23;;;;;;;19.16;45.70;101082.25;5989056;28;20445;-67
2022/05/22 10:53:39;;;;;;;3.28;1.70;;;;;;;19.28;46.62;101086.09;5980643;28;20030;-67
2022/05/22 10:56:35;;;;;;;5.00;1.88;;;;;;;19.60;45.85;101096.34;5977443;28;20115;-66
2022/05/22 10:59:30;;;;;;;5.68;1.42;;;;;;;19.88;45.74;101082.88;5979841;28;20035;-65
2022/05/22 11:02:28;;;;;;;5.90;1.50;;;;;;;20.12;43.82;101087.78;5983769;28;20126;-66
2022/05/22 11:05:28;;;;;;;5.22;1.42;;;;;;;19.88;44.95;101077.50;5990264;28;20514;-66
2022/05/22 11:08:35;;;;;;;3.83;1.50;;;;;;;20.08;43.86;101081.13;5989563;28;20047;-66
2022/05/22 11:11:32;;;;;;;2.45;1.20;;;;;;;20.19;45.70;101079.75;5979961;28;20479;-67
2022/05/22 11:14:28;;;;;;;6.18;1.70;;;;;;;20.39;44.72;101082.53;5976082;28;20031;-67
2022/05/22 11:17:23;;;;;;;5.40;1.52;;;;;;;20.16;45.25;101074.75;5978330;28;20046;-66
2022/05/22 11:20:21;;;;;;;2.83;1.17;;;;;;;20.33;42.09;101070.72;5979440;28;20555;-66
2022/05/22 11:23:21;;;;;;;4.25;1.25;;;;;;;20.43;41.41;101071.19;5980120;28;20042;-66
2022/05/22 11:26:36;;;;;;;3.22;1.10;;;;;;;20.45;40.89;101062.88;5978642;28;20053;-66
2022/05/22 11:29:44;;;;;;;4.72;1.27;;;;;;;20.09;47.11;101069.31;5982653;28;20488;-66
2022/05/22 11:33:01;;;;;;;5.93;1.40;;;;;;;20.01;45.19;101058.72;5977023;29;20410;-67
2022/05/22 11:36:13;;;;;;;5.18;1.65;;;;;;;20.85;42.00;101044.94;5976560;28;20027;-66
2022/05/22 11:39:15;;;;;;;5.43;1.30;;;;;;;20.90;42.22;101043.31;5977944;29;20049;-66
2022/05/22 11:42:16;;;;;;;2.53;1.30;;;;;;;20.67;42.42;101045.53;5978785;28;20035;-67
2022/05/22 11:45:19;;;;;;;2.47;1.13;;;;;;;20.29;41.69;101034.44;5987222;28;20031;-67
2022/05/22 11:48:19;;;;;;;2.40;1.30;;;;;;;20.36;41.31;101037.97;5980025;28;20121;-66
2022/05/22 11:51:44;;;;;;;3.25;1.30;;;;;;;19.86;41.69;101028.41;5985961;28;20035;-66
2022/05/22 11:55:02;;;;;;;3.00;1.15;;;;;;;19.41;43.50;101021.69;5979220;28;20102;-67
2022/05/22 11:58:18;;;;;;;3.75;1.27;;;;;;;19.21;45.35;101025.22;5974586;28;20060;-66
2022/05/22 12:01:23;;;;;;;4.00;1.20;;;;;;;19.41;45.59;101015.47;5987374;28;20036;-66
2022/05/22 12:04:48;;;;;;;3.88;1.05;;;;;;;19.41;44.17;101021.69;5977040;28;20041;-67
2022/05/22 12:07:59;;;;;;;2.92;1.48;;;;;;;19.33;45.53;101019.13;5969147;28;20043;-67
2022/05/22 12:11:04;;;;;;;5.55;1.33;;;;;;;19.25;43.72;101004.97;5979669;28;20031;-67
2022/05/22 12:14:26;;;;;;;3.03;1.30;;;;;;;18.82;45.67;101020.31;5965360;29;20119;-66
2022/05/22 12:17:34;;;;;;;4.70;1.40;;;;;;;18.66;45.21;101018.72;5981144;28;20410;-67
2022/05/22 12:20:29;;;;;;;4.68;1.10;;;;;;;19.21;43.22;101019.84;5986552;28;20047;-66
2022/05/22 12:23:28;;;;;;;3.73;1.10;;;;;;;19.50;40.10;101008.91;5982821;28;20042;-67
2022/05/22 12:26:25;;;;;;;1.75;1.00;;;;;;;19.80;42.07;101018.44;5981092;29;20042;-67
2022/05/22 12:29:34;;;;;;;3.03;1.00;;;;;;;19.98;42.02;101007.97;5977576;28;20043;-67
2022/05/22 12:32:34;;;;;;;4.22;1.30;;;;;;;20.09;41.02;101012.78;5981550;28;20031;-66
2022/05/22 12:35:29;;;;;;;1.95;0.82;;;;;;;20.39;40.23;101007.09;5980026;28;20113;-67
2022/05/22 12:38:25;;;;;;;3.63;0.80;;;;;;;20.54;40.95;100995.16;5986332;28;20105;-67
2022/05/22 12:41:29;;;;;;;5.63;1.42;;;;;;;20.00;40.95;100992.41;5987253;28;20042;-66
2022/05/22 12:44:25;;;;;;;3.42;1.20;;;;;;;20.26;41.02;100988.22;5974536;28;20439;-67
2022/05/22 12:47:21;;;;;;;2.75;1.23;;;;;;;20.34;39.83;100988.88;5978772;28;20031;-66
2022/05/22 12:50:31;;;;;;;3.03;0.70;;;;;;;20.60;40.31;100982.72;5994213;28;20035;-67
2022/05/22 12:53:29;;;;;;;4.95;1.10;;;;;;;20.23;39.33;100973.25;5982399;28;20483;-66
2022/05/22 12:56:38;;;;;;;3.28;0.90;;;;;;;21.09;39.28;100969.69;5973530;28;20058;-66
2022/05/22 12:59:34;;;;;;;3.80;0.63;;;;;;;21.17;38.37;100958.69;5990762;28;20035;-67
2022/05/22 13:02:32;;;;;;;2.50;0.70;;;;;;;20.55;38.97;100967.16;5983030;28;20100;-66
2022/05/22 13:05:33;;;;;;;3.95;1.05;;;;;;;21.23;36.78;100951.63;5979170;28;20039;-68
2022/05/22 13:08:39;;;;;;;2.08;0.70;;;;;;;20.58;38.97;100955.13;5982927;28;20023;-67
2022/05/22 13:11:41;;;;;;;4.10;0.90;;;;;;;21.16;37.61;100948.97;5980249;28;20039;-66
2022/05/22 13:14:55;;;;;;;3.80;0.80;;;;;;;21.52;38.34;100942.25;5980517;28;20138;-68
2022/05/22 13:18:14;;;;;;;2.50;0.90;;;;;;;21.74;37.98;100949.03;5986225;28;20027;-66
2022/05/22 13:21:09;;;;;;;6.18;1.00;;;;;;;21.47;37.71;100944.75;5975961;28;20050;-67
2022/05/22 13:24:29;;;;;;;2.87;0.90;;;;;;;20.81;38.14;100946.66;5972157;28;20042;-66
2022/05/22 13:27:39;;;;;;;2.05;0.80;;;;;;;20.88;39.99;100934.00;5983439;28;20032;-67
2022/05/22 13:30:42;;;;;;;1.52;0.70;;;;;;;20.97;38.01;100938.16;5981301;28;20035;-67
2022/05/22 13:33:48;;;;;;;2.35;0.90;;;;;;;21.13;39.53;100927.81;5979243;28;20090;-66
2022/05/22 13:36:50;;;;;;;2.65;0.90;;;;;;;21.29;35.37;100921.97;5974522;28;20047;-67
2022/05/22 13:40:05;;;;;;;2.80;0.82;;;;;;;21.95;37.24;100932.56;5982101;28;20035;-67
2022/05/22 13:43:22;;;;;;;3.78;0.90;;;;;;;21.97;34.53;100929.66;5973431;28;20043;-66
2022/05/22 13:46:44;;;;;;;2.47;0.90;;;;;;;22.63;33.01;100924.69;5982141;28;20031;-67
2022/05/22 13:52:34;;;;;;;2.50;0.80;;;;;;;21.42;36.63;100910.28;5982092;28;20403;-67
2022/05/22 13:53:27;;;;;;;4.95;1.27;;;;;;;21.97;36.05;100919.69;5978162;28;20039;-67
2022/05/22 13:56:37;;;;;;;3.55;0.73;;;;;;;21.38;35.55;100900.16;5979316;29;20047;-67
2022/05/22 13:59:36;;;;;;;3.35;1.05;;;;;;;21.89;34.35;100901.84;5990481;28;20411;-67
2022/05/22 14:02:50;;;;;;;;;;;;;;;22.26;35.94;100904.75;5974672;28;20396;-67
2022/05/22 14:05:51;;;;;;;2.30;0.73;;;;;;;22.73;34.14;100904.25;5969476;28;19965;-67
2022/05/22 14:08:51;;;;;;;4.00;0.80;;;;;;;23.49;34.93;100893.94;5979385;28;20046;-67
2022/05/22 14:11:52;;;;;;;8.25;0.88;;;;;;;23.52;32.92;100893.50;5979937;28;20039;-67
2022/05/22 14:14:49;;;;;;;5.07;0.95;;;;;;;22.18;33.71;100889.63;5988271;28;20077;-67
2022/05/22 14:17:47;;;;;;;4.68;1.00;;;;;;;22.68;32.31;100885.16;5975324;28;20038;-68